sensor_id;sensor_type;location;lat;lon;timestamp;pressure;altitude;pressure_sealevel;temperature;humidity
49813;BME280;35706;52.100;5.056;2022-07-23T00:02:42;101977.41;;;19.24;62.10
49813;BME280;35706;52.100;5.056;2022-07-23T00:05:28;101979.06;;;19.17;62.35
49813;BME280;35706;52.100;5.056;2022-07-23T00:08:13;101974.59;;;19.25;62.40
49813;BME280;35706;52.100;5.056;2022-07-23T00:10:59;101964.75;;;19.26;62.31
49813;BME280;35706;52.100;5.056;2022-07-23T00:13:46;101975.91;;;19.21;62.01
49813;BME280;35706;52.100;5.056;2022-07-23T00:16:31;101975.75;;;19.23;61.91
49813;BME280;35706;52.100;5.056;2022-07-23T00:19:17;101968.75;;;19.22;61.77
49813;BME280;35706;52.100;5.056;2022-07-23T00:22:02;101974.41;;;19.19;62.39
49813;BME280;35706;52.100;5.056;2022-07-23T00:24:48;101970.94;;;19.18;62.11
49813;BME280;35706;52.100;5.056;2022-07-23T00:27:34;101968.56;;;19.15;62.40
49813;BME280;35706;52.100;5.056;2022-07-23T00:30:20;101967.88;;;19.05;62.96
49813;BME280;35706;52.100;5.056;2022-07-23T00:33:07;101974.56;;;19.01;62.92
49813;BME280;35706;52.100;5.056;2022-07-23T00:35:53;101970.75;;;19.03;62.38
49813;BME280;35706;52.100;5.056;2022-07-23T00:38:38;101969.72;;;18.96;62.95
49813;BME280;35706;52.100;5.056;2022-07-23T00:41:24;101968.72;;;18.97;63.17
49813;BME280;35706;52.100;5.056;2022-07-23T00:47:04;101958.63;;;18.66;64.23
49813;BME280;35706;52.100;5.056;2022-07-23T00:49:51;101962.16;;;18.67;64.49
49813;BME280;35706;52.100;5.056;2022-07-23T00:52:38;101966.94;;;18.55;65.17
49813;BME280;35706;52.100;5.056;2022-07-23T00:55:23;101956.78;;;18.59;65.55
49813;BME280;35706;52.100;5.056;2022-07-23T00:58:09;101961.78;;;18.62;65.66
49813;BME280;35706;52.100;5.056;2022-07-23T01:00:56;101948.78;;;18.50;65.78
49813;BME280;35706;52.100;5.056;2022-07-23T01:03:41;101943.75;;;18.47;65.48
49813;BME280;35706;52.100;5.056;2022-07-23T01:06:27;101942.47;;;18.60;64.72
49813;BME280;35706;52.100;5.056;2022-07-23T01:09:13;101935.75;;;18.39;65.69
49813;BME280;35706;52.100;5.056;2022-07-23T01:11:59;101928.63;;;18.40;66.28
49813;BME280;35706;52.100;5.056;2022-07-23T01:14:45;101928.28;;;18.43;65.92
49813;BME280;35706;52.100;5.056;2022-07-23T01:17:31;101921.94;;;18.36;66.63
49813;BME280;35706;52.100;5.056;2022-07-23T01:20:17;101927.75;;;18.31;66.77
49813;BME280;35706;52.100;5.056;2022-07-23T01:23:02;101923.78;;;18.35;66.79
49813;BME280;35706;52.100;5.056;2022-07-23T01:25:57;101926.56;;;18.25;67.54
49813;BME280;35706;52.100;5.056;2022-07-23T01:28:43;101929.94;;;18.36;67.68
49813;BME280;35706;52.100;5.056;2022-07-23T01:31:28;101933.75;;;18.41;67.34
49813;BME280;35706;52.100;5.056;2022-07-23T01:34:14;101927.75;;;18.31;67.70
49813;BME280;35706;52.100;5.056;2022-07-23T01:37:00;101928.88;;;18.28;68.27
49813;BME280;35706;52.100;5.056;2022-07-23T01:39:46;101927.38;;;18.26;67.78
49813;BME280;35706;52.100;5.056;2022-07-23T01:42:31;101930.41;;;18.31;68.04
49813;BME280;35706;52.100;5.056;2022-07-23T01:45:17;101930.41;;;17.97;69.33
49813;BME280;35706;52.100;5.056;2022-07-23T01:48:03;101936.13;;;18.10;68.99
49813;BME280;35706;52.100;5.056;2022-07-23T01:50:49;101931.75;;;18.01;68.67
49813;BME280;35706;52.100;5.056;2022-07-23T01:53:34;101935.41;;;18.00;69.18
49813;BME280;35706;52.100;5.056;2022-07-23T01:56:20;101935.28;;;18.01;69.56
49813;BME280;35706;52.100;5.056;2022-07-23T01:59:06;101935.09;;;18.03;69.56
49813;BME280;35706;52.100;5.056;2022-07-23T02:01:52;101936.06;;;17.94;69.67
49813;BME280;35706;52.100;5.056;2022-07-23T02:04:38;101940.53;;;17.93;70.01
49813;BME280;35706;52.100;5.056;2022-07-23T02:07:24;101933.38;;;17.94;70.04
49813;BME280;35706;52.100;5.056;2022-07-23T02:10:09;101937.41;;;17.98;70.17
49813;BME280;35706;52.100;5.056;2022-07-23T02:12:55;101928.91;;;17.94;70.42
49813;BME280;35706;52.100;5.056;2022-07-23T02:15:40;101929.38;;;17.89;70.33
49813;BME280;35706;52.100;5.056;2022-07-23T02:18:26;101933.94;;;17.79;70.77
49813;BME280;35706;52.100;5.056;2022-07-23T02:21:12;101936.25;;;18.00;70.29
49813;BME280;35706;52.100;5.056;2022-07-23T02:23:58;101933.38;;;17.94;70.65
49813;BME280;35706;52.100;5.056;2022-07-23T02:26:43;101932.03;;;17.89;70.54
49813;BME280;35706;52.100;5.056;2022-07-23T02:29:29;101931.22;;;17.89;70.18
49813;BME280;35706;52.100;5.056;2022-07-23T02:32:15;101925.03;;;17.88;70.36
49813;BME280;35706;52.100;5.056;2022-07-23T02:35:01;101930.53;;;17.87;70.08
49813;BME280;35706;52.100;5.056;2022-07-23T02:37:47;101929.84;;;17.85;70.80
49813;BME280;35706;52.100;5.056;2022-07-23T02:40:33;101932.44;;;17.77;71.37
49813;BME280;35706;52.100;5.056;2022-07-23T02:43:18;101933.66;;;17.82;71.08
49813;BME280;35706;52.100;5.056;2022-07-23T02:46:04;101931.25;;;17.97;70.01
49813;BME280;35706;52.100;5.056;2022-07-23T02:48:50;101939.53;;;17.94;69.78
49813;BME280;35706;52.100;5.056;2022-07-23T02:51:35;101942.88;;;17.96;69.41
49813;BME280;35706;52.100;5.056;2022-07-23T02:54:21;101945.88;;;17.93;69.67
49813;BME280;35706;52.100;5.056;2022-07-23T02:57:07;101952.69;;;17.96;69.46
49813;BME280;35706;52.100;5.056;2022-07-23T02:59:52;101949.66;;;17.90;69.89
49813;BME280;35706;52.100;5.056;2022-07-23T03:02:38;101949.75;;;17.81;69.89
49813;BME280;35706;52.100;5.056;2022-07-23T03:05:24;101941.22;;;17.77;70.13
49813;BME280;35706;52.100;5.056;2022-07-23T03:08:09;101953.78;;;17.67;70.47
49813;BME280;35706;52.100;5.056;2022-07-23T03:10:55;101951.34;;;17.74;70.05
49813;BME280;35706;52.100;5.056;2022-07-23T03:13:41;101949.53;;;17.74;70.17
49813;BME280;35706;52.100;5.056;2022-07-23T03:16:26;101948.25;;;17.78;69.93
49813;BME280;35706;52.100;5.056;2022-07-23T03:19:12;101955.53;;;17.76;69.75
49813;BME280;35706;52.100;5.056;2022-07-23T03:21:58;101955.34;;;17.78;69.64
49813;BME280;35706;52.100;5.056;2022-07-23T03:24:44;101963.66;;;17.75;69.57
49813;BME280;35706;52.100;5.056;2022-07-23T03:27:39;101964.69;;;17.82;69.61
49813;BME280;35706;52.100;5.056;2022-07-23T03:30:24;101960.78;;;17.68;69.42
49813;BME280;35706;52.100;5.056;2022-07-23T03:33:10;101958.75;;;17.62;69.73
49813;BME280;35706;52.100;5.056;2022-07-23T03:35:56;101951.06;;;17.59;69.55
49813;BME280;35706;52.100;5.056;2022-07-23T03:38:41;101945.34;;;17.45;71.02
49813;BME280;35706;52.100;5.056;2022-07-23T03:41:27;101950.88;;;17.52;71.06
49813;BME280;35706;52.100;5.056;2022-07-23T03:44:13;101945.13;;;17.65;70.87
49813;BME280;35706;52.100;5.056;2022-07-23T03:46:58;101944.16;;;17.66;70.46
49813;BME280;35706;52.100;5.056;2022-07-23T03:49:44;101942.69;;;17.45;71.05
49813;BME280;35706;52.100;5.056;2022-07-23T03:52:30;101943.75;;;17.53;70.37
49813;BME280;35706;52.100;5.056;2022-07-23T03:55:16;101937.06;;;17.48;70.22
49813;BME280;35706;52.100;5.056;2022-07-23T03:58:01;101940.97;;;17.62;70.36
49813;BME280;35706;52.100;5.056;2022-07-23T04:00:47;101933.31;;;17.59;69.42
49813;BME280;35706;52.100;5.056;2022-07-23T04:03:33;101936.81;;;17.60;69.38
49813;BME280;35706;52.100;5.056;2022-07-23T04:06:19;101941.09;;;17.53;70.04
49813;BME280;35706;52.100;5.056;2022-07-23T04:09:05;101937.56;;;17.52;69.81
49813;BME280;35706;52.100;5.056;2022-07-23T04:11:50;101942.88;;;17.52;70.30
49813;BME280;35706;52.100;5.056;2022-07-23T04:14:36;101942.41;;;17.57;70.61
49813;BME280;35706;52.100;5.056;2022-07-23T04:17:22;101945.41;;;17.54;70.31
49813;BME280;35706;52.100;5.056;2022-07-23T04:20:08;101947.38;;;17.52;69.90
49813;BME280;35706;52.100;5.056;2022-07-23T04:22:53;101947.91;;;17.55;70.12
49813;BME280;35706;52.100;5.056;2022-07-23T04:25:39;101951.47;;;17.46;71.09
49813;BME280;35706;52.100;5.056;2022-07-23T04:28:25;101940.16;;;17.44;70.98
49813;BME280;35706;52.100;5.056;2022-07-23T04:31:10;101949.56;;;17.56;70.75
49813;BME280;35706;52.100;5.056;2022-07-23T04:33:56;101957.34;;;17.76;68.52
49813;BME280;35706;52.100;5.056;2022-07-23T04:36:42;101954.13;;;17.64;68.30
49813;BME280;35706;52.100;5.056;2022-07-23T04:39:27;101960.41;;;17.63;68.75
49813;BME280;35706;52.100;5.056;2022-07-23T04:42:13;101970.25;;;17.26;69.75
49813;BME280;35706;52.100;5.056;2022-07-23T04:44:59;101970.56;;;17.23;69.63
49813;BME280;35706;52.100;5.056;2022-07-23T04:47:44;101962.44;;;17.25;69.78
49813;BME280;35706;52.100;5.056;2022-07-23T04:50:30;101960.63;;;17.07;70.89
49813;BME280;35706;52.100;5.056;2022-07-23T04:53:15;101967.47;;;17.28;69.83
49813;BME280;35706;52.100;5.056;2022-07-23T04:56:01;101969.44;;;17.26;69.63
49813;BME280;35706;52.100;5.056;2022-07-23T04:58:47;101975.44;;;17.28;69.13
49813;BME280;35706;52.100;5.056;2022-07-23T05:01:32;101970.03;;;17.38;68.14
49813;BME280;35706;52.100;5.056;2022-07-23T05:04:18;101976.25;;;17.46;67.36
49813;BME280;35706;52.100;5.056;2022-07-23T05:07:04;101972.59;;;17.47;68.77
49813;BME280;35706;52.100;5.056;2022-07-23T05:09:50;101965.22;;;17.59;68.34
49813;BME280;35706;52.100;5.056;2022-07-23T05:12:35;101961.94;;;17.65;66.44
49813;BME280;35706;52.100;5.056;2022-07-23T05:15:21;101971.50;;;17.76;66.44
49813;BME280;35706;52.100;5.056;2022-07-23T05:18:07;101966.94;;;17.86;66.03
49813;BME280;35706;52.100;5.056;2022-07-23T05:20:52;101967.25;;;17.83;66.26
49813;BME280;35706;52.100;5.056;2022-07-23T05:23:38;101971.59;;;17.84;65.58
49813;BME280;35706;52.100;5.056;2022-07-23T05:26:23;101980.13;;;17.96;64.71
49813;BME280;35706;52.100;5.056;2022-07-23T05:29:09;101985.34;;;18.06;63.89
49813;BME280;35706;52.100;5.056;2022-07-23T05:31:55;101987.94;;;17.98;63.64
49813;BME280;35706;52.100;5.056;2022-07-23T05:34:41;101985.00;;;18.09;63.41
49813;BME280;35706;52.100;5.056;2022-07-23T05:37:26;101996.06;;;17.96;62.17
49813;BME280;35706;52.100;5.056;2022-07-23T05:40:12;102000.19;;;17.90;63.09
49813;BME280;35706;52.100;5.056;2022-07-23T05:42:58;101997.13;;;18.03;63.97
49813;BME280;35706;52.100;5.056;2022-07-23T05:45:44;102007.19;;;17.92;63.78
49813;BME280;35706;52.100;5.056;2022-07-23T05:48:30;101992.91;;;17.75;63.60
49813;BME280;35706;52.100;5.056;2022-07-23T05:51:22;101998.69;;;17.88;63.46
49813;BME280;35706;52.100;5.056;2022-07-23T05:54:08;102004.31;;;17.85;63.82
49813;BME280;35706;52.100;5.056;2022-07-23T05:56:54;102000.25;;;17.99;64.69
49813;BME280;35706;52.100;5.056;2022-07-23T05:59:39;102000.19;;;17.90;63.96
49813;BME280;35706;52.100;5.056;2022-07-23T06:02:25;102000.19;;;17.90;64.47
49813;BME280;35706;52.100;5.056;2022-07-23T06:05:11;102000.44;;;18.05;64.08
49813;BME280;35706;52.100;5.056;2022-07-23T06:07:56;102005.31;;;18.10;64.24
49813;BME280;35706;52.100;5.056;2022-07-23T06:10:42;102006.03;;;18.20;63.53
49813;BME280;35706;52.100;5.056;2022-07-23T06:13:28;102003.09;;;18.31;61.50
49813;BME280;35706;52.100;5.056;2022-07-23T06:16:13;101993.66;;;18.45;61.48
49813;BME280;35706;52.100;5.056;2022-07-23T06:18:59;101991.88;;;18.54;61.57
49813;BME280;35706;52.100;5.056;2022-07-23T06:21:44;102000.56;;;18.64;61.45
49813;BME280;35706;52.100;5.056;2022-07-23T06:24:30;102003.91;;;18.66;61.65
49813;BME280;35706;52.100;5.056;2022-07-23T06:27:16;101999.25;;;18.68;61.70
49813;BME280;35706;52.100;5.056;2022-07-23T06:30:02;101999.91;;;18.70;61.78
49813;BME280;35706;52.100;5.056;2022-07-23T06:32:48;101995.63;;;18.78;61.00
49813;BME280;35706;52.100;5.056;2022-07-23T06:35:34;102004.00;;;18.83;61.29
49813;BME280;35706;52.100;5.056;2022-07-23T06:38:20;101994.97;;;18.76;61.34
49813;BME280;35706;52.100;5.056;2022-07-23T06:41:05;102007.28;;;18.77;60.79
49813;BME280;35706;52.100;5.056;2022-07-23T06:43:51;102006.00;;;18.89;61.18
49813;BME280;35706;52.100;5.056;2022-07-23T06:46:37;102011.69;;;18.86;60.09
49813;BME280;35706;52.100;5.056;2022-07-23T06:49:22;102008.34;;;18.92;58.73
49813;BME280;35706;52.100;5.056;2022-07-23T06:52:08;102014.69;;;18.91;59.03
49813;BME280;35706;52.100;5.056;2022-07-23T06:54:54;102021.84;;;18.90;59.72
49813;BME280;35706;52.100;5.056;2022-07-23T06:57:39;102020.00;;;18.91;61.24
49813;BME280;35706;52.100;5.056;2022-07-23T07:00:25;102022.81;;;18.89;59.76
49813;BME280;35706;52.100;5.056;2022-07-23T07:03:12;102026.50;;;18.88;59.81
49813;BME280;35706;52.100;5.056;2022-07-23T07:05:57;102020.00;;;18.91;60.23
49813;BME280;35706;52.100;5.056;2022-07-23T07:08:43;102019.69;;;19.02;60.24
49813;BME280;35706;52.100;5.056;2022-07-23T07:11:29;102021.84;;;19.07;59.27
49813;BME280;35706;52.100;5.056;2022-07-23T07:14:14;102022.34;;;19.02;58.86
49813;BME280;35706;52.100;5.056;2022-07-23T07:17:00;102017.38;;;18.99;58.96
49813;BME280;35706;52.100;5.056;2022-07-23T07:19:46;102029.75;;;19.33;59.54
49813;BME280;35706;52.100;5.056;2022-07-23T07:22:31;102029.25;;;20.03;57.92
49813;BME280;35706;52.100;5.056;2022-07-23T07:25:17;102031.13;;;20.42;55.82
49813;BME280;35706;52.100;5.056;2022-07-23T07:28:03;102026.72;;;20.10;55.04
49813;BME280;35706;52.100;5.056;2022-07-23T07:30:49;102034.59;;;20.51;55.74
49813;BME280;35706;52.100;5.056;2022-07-23T07:33:35;102034.16;;;20.87;54.11
49813;BME280;35706;52.100;5.056;2022-07-23T07:36:20;102030.13;;;20.91;52.77
49813;BME280;35706;52.100;5.056;2022-07-23T07:39:06;102029.16;;;20.84;53.60
49813;BME280;35706;52.100;5.056;2022-07-23T07:41:52;102033.81;;;20.90;53.42
49813;BME280;35706;52.100;5.056;2022-07-23T07:44:37;102027.53;;;21.06;53.61
49813;BME280;35706;52.100;5.056;2022-07-23T07:47:23;102035.47;;;20.91;52.80
49813;BME280;35706;52.100;5.056;2022-07-23T07:50:09;102035.25;;;21.01;53.56
49813;BME280;35706;52.100;5.056;2022-07-23T07:52:55;102034.63;;;20.90;53.24
49813;BME280;35706;52.100;5.056;2022-07-23T07:55:41;102031.09;;;20.98;52.74
49813;BME280;35706;52.100;5.056;2022-07-23T07:58:26;102032.59;;;21.24;52.74
49813;BME280;35706;52.100;5.056;2022-07-23T08:01:12;102042.19;;;21.10;52.54
49813;BME280;35706;52.100;5.056;2022-07-23T08:03:58;102045.19;;;21.15;53.02
49813;BME280;35706;52.100;5.056;2022-07-23T08:06:43;102045.84;;;21.17;52.34
49813;BME280;35706;52.100;5.056;2022-07-23T08:09:29;102041.41;;;21.01;52.79
49813;BME280;35706;52.100;5.056;2022-07-23T08:12:15;102058.03;;;20.88;52.73
49813;BME280;35706;52.100;5.056;2022-07-23T08:15:00;102046.47;;;20.96;53.18
49813;BME280;35706;52.100;5.056;2022-07-23T08:17:47;102049.81;;;20.98;52.38
49813;BME280;35706;52.100;5.056;2022-07-23T08:20:33;102043.06;;;21.10;52.09
49813;BME280;35706;52.100;5.056;2022-07-23T08:23:19;102051.28;;;21.01;52.21
49813;BME280;35706;52.100;5.056;2022-07-23T08:26:05;102063.53;;;20.87;52.63
49813;BME280;35706;52.100;5.056;2022-07-23T08:28:51;102051.16;;;20.94;52.57
49813;BME280;35706;52.100;5.056;2022-07-23T08:31:36;102052.97;;;21.25;51.98
49813;BME280;35706;52.100;5.056;2022-07-23T08:34:22;102052.69;;;21.20;51.50
49813;BME280;35706;52.100;5.056;2022-07-23T08:37:08;102054.03;;;21.15;51.81
49813;BME280;35706;52.100;5.056;2022-07-23T08:39:53;102061.22;;;21.46;51.60
49813;BME280;35706;52.100;5.056;2022-07-23T08:42:42;102052.78;;;21.58;50.80
49813;BME280;35706;52.100;5.056;2022-07-23T08:45:27;102063.91;;;21.46;50.84
49813;BME280;35706;52.100;5.056;2022-07-23T08:48:18;102060.13;;;21.32;49.98
49813;BME280;35706;52.100;5.056;2022-07-23T08:51:05;102066.88;;;21.20;51.23
49813;BME280;35706;52.100;5.056;2022-07-23T08:53:51;102068.22;;;21.47;50.55
49813;BME280;35706;52.100;5.056;2022-07-23T08:56:38;102066.91;;;21.66;50.28
49813;BME280;35706;52.100;5.056;2022-07-23T08:59:24;102058.22;;;21.41;50.14
49813;BME280;35706;52.100;5.056;2022-07-23T09:02:12;102060.50;;;21.52;51.49
49813;BME280;35706;52.100;5.056;2022-07-23T09:04:58;102055.88;;;21.46;51.25
49813;BME280;35706;52.100;5.056;2022-07-23T09:08:45;102068.44;;;21.61;50.62
49813;BME280;35706;52.100;5.056;2022-07-23T09:11:17;102071.38;;;21.74;49.92
49813;BME280;35706;52.100;5.056;2022-07-23T09:14:04;102067.56;;;21.45;49.47
49813;BME280;35706;52.100;5.056;2022-07-23T09:16:49;102068.16;;;21.55;49.08
49813;BME280;35706;52.100;5.056;2022-07-23T09:19:36;102073.78;;;21.38;49.55
49813;BME280;35706;52.100;5.056;2022-07-23T09:22:26;102070.72;;;21.72;49.14
49813;BME280;35706;52.100;5.056;2022-07-23T09:25:15;102068.50;;;21.75;48.59
49813;BME280;35706;52.100;5.056;2022-07-23T09:28:01;102071.09;;;21.84;49.26
49813;BME280;35706;52.100;5.056;2022-07-23T09:30:50;102066.03;;;21.74;48.52
49813;BME280;35706;52.100;5.056;2022-07-23T09:33:36;102070.72;;;21.49;49.11
49813;BME280;35706;52.100;5.056;2022-07-23T09:36:29;102074.34;;;21.79;49.49
49813;BME280;35706;52.100;5.056;2022-07-23T09:39:21;102069.13;;;22.01;48.96
49813;BME280;35706;52.100;5.056;2022-07-23T09:42:20;102068.34;;;22.30;48.30
49813;BME280;35706;52.100;5.056;2022-07-23T09:45:10;102069.47;;;22.50;48.49
49813;BME280;35706;52.100;5.056;2022-07-23T09:48:12;102073.97;;;22.35;48.20
49813;BME280;35706;52.100;5.056;2022-07-23T09:51:02;102076.66;;;22.50;47.84
49813;BME280;35706;52.100;5.056;2022-07-23T09:53:48;102076.84;;;22.63;47.85
49813;BME280;35706;52.100;5.056;2022-07-23T09:56:35;102079.78;;;22.68;47.76
49813;BME280;35706;52.100;5.056;2022-07-23T09:59:24;102077.94;;;22.69;47.46
49813;BME280;35706;52.100;5.056;2022-07-23T10:02:13;102082.63;;;22.82;47.28
49813;BME280;35706;52.100;5.056;2022-07-23T10:05:01;102067.84;;;22.86;46.24
49813;BME280;35706;52.100;5.056;2022-07-23T10:07:47;102067.44;;;22.67;46.00
49813;BME280;35706;52.100;5.056;2022-07-23T10:10:33;102075.66;;;22.36;46.86
49813;BME280;35706;52.100;5.056;2022-07-23T10:13:19;102071.66;;;22.62;46.38
49813;BME280;35706;52.100;5.056;2022-07-23T10:16:08;102069.09;;;22.53;46.67
49813;BME280;35706;52.100;5.056;2022-07-23T10:18:54;102070.19;;;22.74;47.16
49813;BME280;35706;52.100;5.056;2022-07-23T10:22:19;102060.25;;;23.04;47.02
49813;BME280;35706;52.100;5.056;2022-07-23T10:25:32;102074.19;;;23.00;46.20
49813;BME280;35706;52.100;5.056;2022-07-23T10:31:31;102071.44;;;23.08;45.67
49813;BME280;35706;52.100;5.056;2022-07-23T10:34:41;102063.34;;;22.86;45.46
49813;BME280;35706;52.100;5.056;2022-07-23T10:40:23;102069.22;;;23.11;45.76
49813;BME280;35706;52.100;5.056;2022-07-23T10:43:15;102063.88;;;23.33;45.53
49813;BME280;35706;52.100;5.056;2022-07-23T10:46:23;102057.03;;;23.52;45.91
49813;BME280;35706;52.100;5.056;2022-07-23T10:49:31;102050.94;;;23.65;45.39
49813;BME280;35706;52.100;5.056;2022-07-23T10:52:18;102058.88;;;23.51;45.03
49813;BME280;35706;52.100;5.056;2022-07-23T10:57:52;102056.63;;;23.55;44.22
49813;BME280;35706;52.100;5.056;2022-07-23T11:00:38;102053.06;;;23.69;45.56
49813;BME280;35706;52.100;5.056;2022-07-23T11:03:29;102047.84;;;23.89;44.81
49813;BME280;35706;52.100;5.056;2022-07-23T11:06:17;102050.94;;;23.86;44.40
49813;BME280;35706;52.100;5.056;2022-07-23T11:15:08;102052.91;;;23.99;43.46
49813;BME280;35706;52.100;5.056;2022-07-23T11:20:40;102051.94;;;24.07;42.80
49813;BME280;35706;52.100;5.056;2022-07-23T11:26:56;102054.00;;;24.46;42.64
49813;BME280;35706;52.100;5.056;2022-07-23T11:29:43;102057.16;;;24.50;43.80
49813;BME280;35706;52.100;5.056;2022-07-23T11:32:31;102054.69;;;24.55;42.91
49813;BME280;35706;52.100;5.056;2022-07-23T11:35:24;102054.13;;;24.66;42.32
49813;BME280;35706;52.100;5.056;2022-07-23T11:38:16;102053.75;;;24.83;43.35
49813;BME280;35706;52.100;5.056;2022-07-23T11:41:02;102048.75;;;24.66;43.93
49813;BME280;35706;52.100;5.056;2022-07-23T11:43:48;102052.66;;;24.64;43.69
49813;BME280;35706;52.100;5.056;2022-07-23T11:46:34;102054.91;;;24.53;42.51
49813;BME280;35706;52.100;5.056;2022-07-23T11:49:19;102059.44;;;24.53;42.42
49813;BME280;35706;52.100;5.056;2022-07-23T11:52:12;102053.59;;;24.14;43.24
49813;BME280;35706;52.100;5.056;2022-07-23T11:55:01;102046.63;;;24.20;43.66
49813;BME280;35706;52.100;5.056;2022-07-23T11:57:47;102055.84;;;24.46;43.21
49813;BME280;35706;52.100;5.056;2022-07-23T12:00:33;102041.47;;;24.53;43.12
49813;BME280;35706;52.100;5.056;2022-07-23T12:03:19;102047.88;;;24.59;42.56
49813;BME280;35706;52.100;5.056;2022-07-23T12:06:05;102044.47;;;24.44;42.61
49813;BME280;35706;52.100;5.056;2022-07-23T12:08:50;102036.19;;;24.38;42.22
49813;BME280;35706;52.100;5.056;2022-07-23T12:11:36;102042.22;;;24.47;42.72
49813;BME280;35706;52.100;5.056;2022-07-23T12:14:22;102028.31;;;24.78;43.43
49813;BME280;35706;52.100;5.056;2022-07-23T12:17:11;102031.69;;;25.01;42.70
49813;BME280;35706;52.100;5.056;2022-07-23T12:20:00;102034.13;;;24.89;42.67
49813;BME280;35706;52.100;5.056;2022-07-23T12:22:50;102031.69;;;24.94;41.96
49813;BME280;35706;52.100;5.056;2022-07-23T12:25:41;102025.06;;;25.03;42.65
49813;BME280;35706;52.100;5.056;2022-07-23T12:28:30;102022.41;;;25.16;41.55
49813;BME280;35706;52.100;5.056;2022-07-23T12:31:25;102023.09;;;25.32;41.22
49813;BME280;35706;52.100;5.056;2022-07-23T12:34:14;102029.72;;;25.36;41.82
49813;BME280;35706;52.100;5.056;2022-07-23T12:37:01;102031.38;;;25.50;40.66
49813;BME280;35706;52.100;5.056;2022-07-23T12:39:48;102023.09;;;25.58;41.70
49813;BME280;35706;52.100;5.056;2022-07-23T12:42:42;102014.16;;;25.71;40.66
49813;BME280;35706;52.100;5.056;2022-07-23T12:45:41;102016.44;;;25.81;39.88
49813;BME280;35706;52.100;5.056;2022-07-23T12:54:09;102020.41;;;25.32;40.20
49813;BME280;35706;52.100;5.056;2022-07-23T12:56:56;102022.00;;;25.06;41.10
49813;BME280;35706;52.100;5.056;2022-07-23T12:59:42;102015.59;;;25.21;40.46
49813;BME280;35706;52.100;5.056;2022-07-23T13:02:27;102016.22;;;25.23;40.15
49813;BME280;35706;52.100;5.056;2022-07-23T13:05:13;102022.66;;;25.42;40.89
49813;BME280;35706;52.100;5.056;2022-07-23T13:07:58;102012.53;;;25.24;40.04
49813;BME280;35706;52.100;5.056;2022-07-23T13:10:44;102016.88;;;25.45;40.52
49813;BME280;35706;52.100;5.056;2022-07-23T13:13:34;102006.94;;;25.78;39.68
49813;BME280;35706;52.100;5.056;2022-07-23T13:16:20;102006.72;;;25.60;39.68
49813;BME280;35706;52.100;5.056;2022-07-23T13:19:06;102004.22;;;25.65;39.55
49813;BME280;35706;52.100;5.056;2022-07-23T13:21:52;102002.91;;;24.88;39.27
49813;BME280;35706;52.100;5.056;2022-07-23T13:24:37;102010.38;;;25.06;38.75
49813;BME280;35706;52.100;5.056;2022-07-23T13:27:23;102016.81;;;25.11;38.57
49813;BME280;35706;52.100;5.056;2022-07-23T13:30:09;102013.97;;;25.26;39.47
49813;BME280;35706;52.100;5.056;2022-07-23T13:32:56;102007.75;;;25.32;39.28
49813;BME280;35706;52.100;5.056;2022-07-23T13:35:41;102014.56;;;25.15;39.72
49813;BME280;35706;52.100;5.056;2022-07-23T13:38:27;102020.13;;;25.13;39.06
49813;BME280;35706;52.100;5.056;2022-07-23T13:41:13;102011.41;;;24.98;39.85
49813;BME280;35706;52.100;5.056;2022-07-23T13:44:01;101998.16;;;24.83;40.42
49813;BME280;35706;52.100;5.056;2022-07-23T13:46:47;101995.56;;;25.43;40.91
49813;BME280;35706;52.100;5.056;2022-07-23T13:49:33;102003.00;;;25.21;40.65
49813;BME280;35706;52.100;5.056;2022-07-23T13:52:18;101999.28;;;25.55;39.98
49813;BME280;35706;52.100;5.056;2022-07-23T13:55:05;101994.53;;;25.51;40.23
49813;BME280;35706;52.100;5.056;2022-07-23T13:57:51;102002.16;;;25.87;39.67
49813;BME280;35706;52.100;5.056;2022-07-23T14:00:39;102007.38;;;25.89;40.96
49813;BME280;35706;52.100;5.056;2022-07-23T14:03:26;102000.75;;;25.45;39.27
49813;BME280;35706;52.100;5.056;2022-07-23T14:06:12;102001.13;;;25.35;41.13
49813;BME280;35706;52.100;5.056;2022-07-23T14:08:57;101995.75;;;25.48;41.22
49813;BME280;35706;52.100;5.056;2022-07-23T14:11:43;101996.16;;;25.72;39.93
49813;BME280;35706;52.100;5.056;2022-07-23T14:14:29;101999.84;;;26.11;40.87
49813;BME280;35706;52.100;5.056;2022-07-23T14:17:14;101990.88;;;26.24;39.36
49813;BME280;35706;52.100;5.056;2022-07-23T14:20:00;102000.50;;;25.99;38.95
49813;BME280;35706;52.100;5.056;2022-07-23T14:22:46;101995.72;;;26.08;38.40
49813;BME280;35706;52.100;5.056;2022-07-23T14:25:32;101989.91;;;25.78;38.76
49813;BME280;35706;52.100;5.056;2022-07-23T14:28:17;101992.63;;;25.71;37.92
49813;BME280;35706;52.100;5.056;2022-07-23T14:31:03;101993.00;;;25.88;39.57
49813;BME280;35706;52.100;5.056;2022-07-23T14:33:49;101997.56;;;25.88;38.54
49813;BME280;35706;52.100;5.056;2022-07-23T14:36:35;101993.03;;;25.75;38.36
49813;BME280;35706;52.100;5.056;2022-07-23T14:39:21;101998.00;;;25.78;38.25
49813;BME280;35706;52.100;5.056;2022-07-23T14:42:08;101996.34;;;25.97;38.51
49813;BME280;35706;52.100;5.056;2022-07-23T14:44:54;101990.44;;;26.33;38.99
49813;BME280;35706;52.100;5.056;2022-07-23T14:47:39;101992.88;;;26.48;37.60
49813;BME280;35706;52.100;5.056;2022-07-23T14:50:25;101997.59;;;26.08;38.07
49813;BME280;35706;52.100;5.056;2022-07-23T14:53:10;101997.16;;;25.84;38.59
49813;BME280;35706;52.100;5.056;2022-07-23T14:55:56;101993.63;;;26.10;38.81
49813;BME280;35706;52.100;5.056;2022-07-23T14:58:42;101988.81;;;26.26;38.36
49813;BME280;35706;52.100;5.056;2022-07-23T15:01:28;101989.09;;;25.84;38.50
49813;BME280;35706;52.100;5.056;2022-07-23T15:04:13;101987.88;;;25.93;39.01